PTAO2: Poteau River, Poteau, OK

                                SHEF ID:       PTAO2     Poteau River at Poteau, OK
STATION TYPE:
Regulating: Stage = 20.00, Flow = 7395

PRECIP STAGE RIV-FLOW VOLTAGE BAT-LOAD
in ft cfs volt volt
Ccp-Rev Ccp-Rev Ccp-Rev Ccp-Rev Ccp-Rev
(America/Chicago)
04/26 00:00 0.01 11.67 2906 12.89 12.47
04/26 01:00 0.00 12.60 3358 12.86 12.45
04/26 02:00 0.00 13.83 3996 12.85 12.44
04/26 03:00 0.00 15.23 4790 12.82 12.41
04/26 04:00 0.00 16.58 5559 12.80 12.40
04/26 05:00 0.00 17.75 6038 12.79 12.37
04/26 06:00 0.00 18.67 6423 12.77 12.35
04/26 07:00 0.00 19.34 6812 12.83 12.36
04/26 08:00 0.00 19.74 7043 14.21 12.84
04/26 09:00 0.00 19.90 7128 14.12 13.19
04/26 10:00 0.00 19.83 7091 14.08 13.19
04/26 11:00 0.00 19.60 6965 13.49 13.09
04/26 12:00 0.00 19.25 6759 13.29 12.89
04/26 13:00 0.00 18.85 6526 13.29 12.82
04/26 14:00 0.00 18.41 6309 13.26 12.80
04/26 15:00 0.00 17.95 6120 13.19 12.77
04/26 16:00 0.00 17.48 5927 13.26 12.74
04/26 17:00 0.00 16.98 5722 13.23 12.76
04/26 18:00 0.00 16.45 5506 13.25 12.71
04/26 19:00 0.00 15.89 5197 13.39 12.79
04/26 20:00 0.00 15.32 4845 13.16 12.76
04/26 21:00 0.00 14.73 4492 13.01 12.58
04/26 22:00 0.00 14.15 4169 12.94 12.50
04/26 23:00 ---- ---- ---- ---- ----
Data processed at Mon 27Apr2026 03:48 GMT

NOTICE: If you are parsing this page

Please convert to using our Data API. Starting early 2026 we will be migrating to: https://water.usace.army.mil with modern pages rendered in JavaScript. When this migration completes you will no longer be able to scrape this page! CWMSDataAPI (CDA)

Timeseries IDs (TSIDs)

TSIDs used from left to right in the data table
POTE.Precip-Inc.Total.1Hour.1Hour.Ccp-Rev
POTE.Stage.Inst.1Hour.0.Ccp-Rev
POTE.Flow.Inst.1Hour.0.Ccp-Rev
POTE.Volt-Battery.Inst.1Hour.0.Ccp-Rev
POTE.Volt-Battery Load.Inst.1Hour.0.Ccp-Rev

                            

All information presented herein is the property of the government of the United States of America and may be revised or deleted at any time without prior notice. Dissemination of this information without the expressed written consent of the Public Affairs Office, Tulsa District U.S. Army Corps of Engineers is strictly prohibited. These data are gathered electronically and, as presented, have NOT undergone any form of quality control. These data are NOT guaranteed to be valid or correct.